Time;durP1;ratioP1;P1;durP2;ratioP2;P2;SDS_P1;SDS_P2;PMS_P1;PMS_P2;Temp;Humidity;BMP_temperature;BMP_pressure;BME280_temperature;BME280_humidity;BME280_pressure;Samples;Min_cycle;Max_cycle;Signal;HPM_P1;HPM_P2
2023/08/11 00:02:23;;;;;;;;;;;20.40;63.10;;;;;;5023503;28;19999;-52
2023/08/11 00:04:50;;;;;;;;;;;20.40;63.00;;;;;;5027803;28;20052;-52
2023/08/11 00:07:15;;;;;;;;;;;20.40;63.10;;;;;;5024139;28;19920;-52
2023/08/11 00:09:41;;;;;;;;;;;20.40;63.10;;;;;;5029640;28;19917;-52
2023/08/11 00:12:06;;;;;;;;;;;20.40;63.20;;;;;;5022903;28;19913;-52
2023/08/11 00:14:32;;;;;;;;;;;20.40;63.10;;;;;;5024822;28;20419;-52
2023/08/11 00:16:58;;;;;;;;;;;20.40;63.10;;;;;;5026881;28;20361;-52
2023/08/11 00:19:23;;;;;;;;;;;20.40;63.10;;;;;;5006956;28;19913;-52
2023/08/11 00:21:49;;;;;;;;;;;20.40;63.10;;;;;;5024848;28;19983;-52
2023/08/11 00:24:14;;;;;;;;;;;20.40;63.10;;;;;;5023393;28;20230;-52
2023/08/11 00:26:40;;;;;;;;;;;20.30;63.00;;;;;;5024378;28;20385;-52
2023/08/11 00:29:05;;;;;;;;;;;20.30;63.20;;;;;;5025242;28;20391;-52
2023/08/11 00:31:30;;;;;;;;;;;20.40;63.30;;;;;;5033548;28;20297;-52
2023/08/11 00:33:56;;;;;;;;;;;20.30;63.20;;;;;;5030795;28;19921;-52
2023/08/11 00:36:22;;;;;;;;;;;20.30;64.10;;;;;;5020541;28;20420;-52
2023/08/11 00:38:47;;;;;;;;;;;20.30;63.30;;;;;;5021958;28;19963;-52
2023/08/11 00:41:16;;;;;;;;;;;20.30;63.50;;;;;;5025506;28;19925;-52
2023/08/11 00:43:41;;;;;;;;;;;20.30;64.20;;;;;;5027123;28;19921;-52
2023/08/11 00:46:08;;;;;;;;;;;20.30;63.40;;;;;;5024609;28;19918;-52
2023/08/11 00:48:33;;;;;;;;;;;20.30;63.40;;;;;;5021556;28;19971;-52
2023/08/11 00:50:59;;;;;;;;;;;20.30;63.40;;;;;;5023199;28;20318;-52
2023/08/11 00:53:24;;;;;;;;;;;20.30;63.50;;;;;;5023769;28;19917;-52
2023/08/11 00:55:50;;;;;;;;;;;20.30;63.50;;;;;;5029589;28;19917;-52
2023/08/11 00:58:16;;;;;;;;;;;20.30;63.40;;;;;;5023492;28;19935;-52
2023/08/11 01:00:41;;;;;;;;;;;20.30;63.40;;;;;;5024133;28;19925;-52
2023/08/11 01:03:07;;;;;;;;;;;20.30;63.60;;;;;;5022283;28;19913;-53
2023/08/11 01:05:33;;;;;;;;;;;20.30;63.60;;;;;;5020986;28;19914;-52
2023/08/11 01:08:03;;;;;;;;;;;20.30;63.60;;;;;;5020193;28;19914;-52
2023/08/11 01:10:33;;;;;;;;;;;20.30;63.70;;;;;;5021251;28;19959;-52
2023/08/11 01:13:02;;;;;;;;;;;20.30;63.50;;;;;;5025212;28;19921;-52
2023/08/11 01:15:29;;;;;;;;;;;20.30;63.60;;;;;;5024957;28;19959;-52
2023/08/11 01:17:55;;;;;;;;;;;20.30;63.60;;;;;;5005664;28;19917;-53
2023/08/11 01:20:20;;;;;;;;;;;20.30;63.60;;;;;;5006450;28;19920;-52
2023/08/11 01:22:46;;;;;;;;;;;20.30;63.60;;;;;;5007381;28;19932;-52
2023/08/11 01:25:12;;;;;;;;;;;20.30;63.60;;;;;;5021779;28;19967;-52
2023/08/11 01:27:44;;;;;;;;;;;20.30;63.70;;;;;;5020572;28;19945;-53
2023/08/11 01:30:12;;;;;;;;;;;20.30;63.80;;;;;;5022005;28;19917;-52
2023/08/11 01:32:41;;;;;;;;;;;20.20;63.80;;;;;;5023586;28;20011;-52
2023/08/11 01:35:08;;;;;;;;;;;20.20;63.90;;;;;;5022267;28;20402;-52
2023/08/11 01:37:33;;;;;;;;;;;20.20;63.80;;;;;;5026364;28;20373;-52
2023/08/11 01:39:59;;;;;;;;;;;20.20;63.90;;;;;;5028075;28;19917;-52
2023/08/11 01:42:24;;;;;;;;;;;20.20;63.90;;;;;;5025059;28;19918;-52
2023/08/11 01:44:50;;;;;;;;;;;20.20;63.90;;;;;;5023327;28;20407;-54
2023/08/11 01:47:15;;;;;;;;;;;20.20;63.90;;;;;;5005403;28;19917;-52
2023/08/11 01:49:41;;;;;;;;;;;20.20;63.90;;;;;;5030844;28;20475;-52
2023/08/11 01:52:06;;;;;;;;;;;20.20;63.90;;;;;;5009912;28;20397;-52
2023/08/11 01:54:32;;;;;;;;;;;20.20;64.00;;;;;;5026859;28;20404;-52
2023/08/11 01:56:57;;;;;;;;;;;20.30;64.00;;;;;;5019504;28;19921;-52
2023/08/11 01:59:23;;;;;;;;;;;20.30;64.00;;;;;;5020904;28;19944;-52
2023/08/11 02:01:48;;;;;;;;;;;20.20;63.90;;;;;;5025335;28;19921;-52
2023/08/11 02:04:14;;;;;;;;;;;20.20;63.90;;;;;;5019965;28;20035;-52
2023/08/11 02:06:39;;;;;;;;;;;20.20;64.00;;;;;;5019092;28;19921;-52
2023/08/11 02:09:07;;;;;;;;;;;20.20;64.00;;;;;;5021732;28;20385;-52
2023/08/11 02:11:34;;;;;;;;;;;20.20;64.00;;;;;;5005701;28;19921;-52
2023/08/11 02:13:59;;;;;;;;;;;20.20;64.20;;;;;;5023069;28;19921;-52
2023/08/11 02:16:25;;;;;;;;;;;20.20;64.90;;;;;;5019052;28;19913;-52
2023/08/11 02:18:50;;;;;;;;;;;20.20;64.10;;;;;;5025105;28;19960;-52
2023/08/11 02:21:16;;;;;;;;;;;20.20;64.20;;;;;;5022898;28;19925;-53
2023/08/11 02:23:41;;;;;;;;;;;20.20;64.20;;;;;;5023743;28;19981;-52
2023/08/11 02:26:07;;;;;;;;;;;20.10;64.20;;;;;;5023905;28;19952;-53
2023/08/11 02:28:33;;;;;;;;;;;20.20;64.20;;;;;;5019092;28;19924;-52
2023/08/11 02:30:58;;;;;;;;;;;20.20;64.30;;;;;;5022413;28;20074;-52
2023/08/11 02:33:24;;;;;;;;;;;20.10;64.20;;;;;;5022002;28;19979;-52
2023/08/11 02:35:49;;;;;;;;;;;20.10;64.20;;;;;;5013183;28;19917;-52
2023/08/11 02:38:14;;;;;;;;;;;20.10;64.30;;;;;;5022708;28;19917;-52
2023/08/11 02:40:40;;;;;;;;;;;20.10;64.30;;;;;;5023853;28;19921;-52
2023/08/11 02:43:07;;;;;;;;;;;20.10;64.30;;;;;;5020889;28;20013;-53
2023/08/11 02:45:32;;;;;;;;;;;20.10;64.30;;;;;;5022538;28;19932;-52
2023/08/11 02:47:58;;;;;;;;;;;20.10;64.30;;;;;;5026562;28;19913;-52
2023/08/11 02:50:23;;;;;;;;;;;20.10;64.30;;;;;;5029481;28;19966;-52
2023/08/11 02:52:49;;;;;;;;;;;20.10;64.20;;;;;;5026013;28;20008;-52
2023/08/11 02:55:14;;;;;;;;;;;20.10;64.20;;;;;;5028846;28;19924;-53
2023/08/11 02:57:40;;;;;;;;;;;20.10;64.20;;;;;;5023917;28;20414;-52
2023/08/11 03:00:14;;;;;;;;;;;20.10;64.30;;;;;;5022023;28;19913;-52
2023/08/11 03:02:41;;;;;;;;;;;20.10;64.30;;;;;;5032624;28;19953;-52
2023/08/11 03:05:07;;;;;;;;;;;20.10;64.30;;;;;;5021063;28;19913;-52
2023/08/11 03:07:34;;;;;;;;;;;20.10;64.30;;;;;;5030859;28;19921;-53
2023/08/11 03:09:59;;;;;;;;;;;20.10;64.30;;;;;;5029555;28;19916;-52
2023/08/11 03:12:24;;;;;;;;;;;20.10;64.40;;;;;;5024239;28;19917;-52
2023/08/11 03:14:50;;;;;;;;;;;20.10;64.40;;;;;;5027758;28;19913;-52
2023/08/11 03:17:15;;;;;;;;;;;20.10;64.40;;;;;;5025138;28;20443;-52
2023/08/11 03:19:41;;;;;;;;;;;20.10;64.50;;;;;;5026156;28;20399;-52
2023/08/11 03:22:06;;;;;;;;;;;20.10;64.50;;;;;;5024633;28;20373;-52
2023/08/11 03:24:31;;;;;;;;;;;20.10;64.40;;;;;;5024982;28;20289;-52
2023/08/11 03:26:57;;;;;;;;;;;20.10;64.30;;;;;;5019962;28;19941;-52
2023/08/11 03:29:22;;;;;;;;;;;20.10;64.40;;;;;;5024959;28;20018;-52
2023/08/11 03:31:48;;;;;;;;;;;20.10;64.40;;;;;;5022055;28;19925;-52
2023/08/11 03:34:13;;;;;;;;;;;20.10;64.40;;;;;;5024302;28;19913;-52
2023/08/11 03:36:39;;;;;;;;;;;20.00;64.40;;;;;;5025233;28;19921;-54
2023/08/11 03:39:04;;;;;;;;;;;20.10;64.60;;;;;;5022773;28;20011;-52
2023/08/11 03:41:30;;;;;;;;;;;20.10;64.50;;;;;;5029770;28;19920;-52
2023/08/11 03:43:55;;;;;;;;;;;20.10;64.50;;;;;;5027401;28;19920;-52
2023/08/11 03:46:21;;;;;;;;;;;20.10;64.60;;;;;;5022389;28;20380;-52
2023/08/11 03:48:46;;;;;;;;;;;20.00;64.50;;;;;;5026938;28;19925;-52
2023/08/11 03:51:11;;;;;;;;;;;20.00;64.60;;;;;;5015886;28;19978;-52
2023/08/11 03:53:38;;;;;;;;;;;20.00;64.60;;;;;;5010295;28;19917;-52
2023/08/11 03:56:07;;;;;;;;;;;20.10;64.50;;;;;;5026004;28;19913;-52
2023/08/11 03:58:36;;;;;;;;;;;20.10;64.60;;;;;;5022756;28;20385;-52
2023/08/11 04:01:02;;;;;;;;;;;20.00;64.60;;;;;;5019983;28;20271;-52
2023/08/11 04:03:30;;;;;;;;;;;20.00;64.60;;;;;;5027513;28;19919;-52
2023/08/11 04:05:56;;;;;;;;;;;20.10;64.70;;;;;;5019299;28;19913;-52
2023/08/11 04:08:22;;;;;;;;;;;20.10;64.70;;;;;;5024178;28;19917;-52
2023/08/11 04:10:47;;;;;;;;;;;20.10;64.70;;;;;;5010274;28;20016;-52
2023/08/11 04:13:13;;;;;;;;;;;20.00;64.70;;;;;;5027256;28;19913;-52
2023/08/11 04:15:39;;;;;;;;;;;20.00;64.70;;;;;;5032639;28;19920;-52
2023/08/11 04:18:04;;;;;;;;;;;20.00;64.80;;;;;;5033981;28;19921;-52
2023/08/11 04:20:30;;;;;;;;;;;20.00;64.80;;;;;;5035825;28;19921;-52
2023/08/11 04:22:56;;;;;;;;;;;20.00;64.80;;;;;;5053894;28;19908;-52
2023/08/11 04:25:22;;;;;;;;;;;20.00;64.80;;;;;;5029789;28;19924;-52
2023/08/11 04:27:47;;;;;;;;;;;20.00;64.70;;;;;;5032115;28;19909;-52
2023/08/11 04:30:13;;;;;;;;;;;20.00;64.80;;;;;;5033020;28;19910;-52
2023/08/11 04:32:38;;;;;;;;;;;20.00;64.90;;;;;;5035949;28;19953;-52
2023/08/11 04:35:06;;;;;;;;;;;20.00;64.80;;;;;;5033482;28;19917;-52
2023/08/11 04:37:33;;;;;;;;;;;20.00;64.90;;;;;;5032579;28;20076;-53
2023/08/11 04:39:58;;;;;;;;;;;20.00;64.90;;;;;;5031192;28;19913;-52
2023/08/11 04:42:23;;;;;;;;;;;20.00;64.80;;;;;;5031971;28;19921;-52
2023/08/11 04:44:49;;;;;;;;;;;20.00;64.80;;;;;;5032680;28;19913;-52
2023/08/11 04:47:14;;;;;;;;;;;20.00;65.00;;;;;;5028681;28;19972;-52
2023/08/11 04:49:41;;;;;;;;;;;20.00;65.00;;;;;;5031452;28;20324;-52
2023/08/11 04:52:07;;;;;;;;;;;20.00;65.10;;;;;;5032075;28;20361;-52
2023/08/11 04:54:33;;;;;;;;;;;20.00;65.10;;;;;;5028571;28;19920;-53
2023/08/11 04:56:59;;;;;;;;;;;20.00;65.10;;;;;;5032344;28;19971;-52
2023/08/11 04:59:24;;;;;;;;;;;19.90;64.90;;;;;;5032227;28;20301;-52
2023/08/11 05:01:50;;;;;;;;;;;20.00;65.10;;;;;;5033202;28;20051;-53
2023/08/11 05:04:15;;;;;;;;;;;20.00;65.10;;;;;;5032352;28;19920;-53
2023/08/11 05:06:41;;;;;;;;;;;20.00;65.20;;;;;;5032689;28;20397;-53
2023/08/11 05:09:06;;;;;;;;;;;20.00;65.20;;;;;;5030453;28;20344;-52
2023/08/11 05:11:32;;;;;;;;;;;20.00;65.20;;;;;;5031759;28;20288;-52
2023/08/11 05:13:57;;;;;;;;;;;20.00;65.30;;;;;;5030323;28;20000;-52
2023/08/11 05:16:24;;;;;;;;;;;20.00;65.30;;;;;;5032487;28;19933;-52
2023/08/11 05:18:49;;;;;;;;;;;20.00;65.30;;;;;;5032530;28;20285;-53
2023/08/11 05:21:17;;;;;;;;;;;20.00;65.20;;;;;;5030023;28;19928;-52
2023/08/11 05:23:43;;;;;;;;;;;20.00;65.30;;;;;;5030822;28;19927;-52
2023/08/11 05:26:08;;;;;;;;;;;20.00;65.20;;;;;;5031676;28;19909;-52
2023/08/11 05:28:33;;;;;;;;;;;20.10;65.30;;;;;;5030927;28;19917;-52
2023/08/11 05:31:01;;;;;;;;;;;20.10;65.30;;;;;;5015058;28;20007;-52
2023/08/11 05:33:26;;;;;;;;;;;20.00;65.30;;;;;;5033149;28;19909;-53
2023/08/11 05:35:52;;;;;;;;;;;20.00;65.40;;;;;;5021825;28;20395;-53
2023/08/11 05:38:20;;;;;;;;;;;20.00;65.40;;;;;;5030740;28;20000;-53
2023/08/11 05:40:46;;;;;;;;;;;20.00;65.50;;;;;;5025876;28;19928;-53
2023/08/11 05:43:11;;;;;;;;;;;20.00;65.50;;;;;;5025657;28;19917;-53
2023/08/11 05:45:36;;;;;;;;;;;20.00;65.60;;;;;;5031357;28;19909;-54
2023/08/11 05:48:02;;;;;;;;;;;20.10;65.70;;;;;;5030029;28;19917;-54
2023/08/11 05:50:27;;;;;;;;;;;20.10;65.60;;;;;;5031692;28;19992;-53
2023/08/11 05:52:53;;;;;;;;;;;20.10;65.60;;;;;;5027542;28;19962;-53
2023/08/11 05:55:19;;;;;;;;;;;20.00;65.50;;;;;;5027158;28;19920;-53
2023/08/11 05:57:45;;;;;;;;;;;20.10;65.70;;;;;;5028068;28;19924;-53
2023/08/11 06:00:10;;;;;;;;;;;20.10;65.70;;;;;;5031282;28;19920;-53
2023/08/11 06:02:36;;;;;;;;;;;20.10;65.80;;;;;;5031116;28;19958;-53
2023/08/11 06:05:01;;;;;;;;;;;20.10;65.80;;;;;;5027985;28;20004;-53
2023/08/11 06:07:27;;;;;;;;;;;20.10;66.00;;;;;;5029533;28;19913;-53
2023/08/11 06:09:52;;;;;;;;;;;20.10;65.90;;;;;;5030838;28;19932;-53
2023/08/11 06:12:18;;;;;;;;;;;20.10;66.00;;;;;;5032678;28;19917;-53
2023/08/11 06:14:43;;;;;;;;;;;20.10;66.00;;;;;;5030414;28;20324;-53
2023/08/11 06:17:08;;;;;;;;;;;20.00;66.10;;;;;;5031668;28;20559;-53
2023/08/11 06:19:34;;;;;;;;;;;20.10;66.20;;;;;;5030068;28;20321;-53
2023/08/11 06:21:59;;;;;;;;;;;20.00;66.10;;;;;;5030415;28;20027;-53
2023/08/11 06:24:25;;;;;;;;;;;20.10;66.10;;;;;;5031232;28;19913;-53
2023/08/11 06:26:51;;;;;;;;;;;20.10;65.90;;;;;;5033255;28;19920;-54
2023/08/11 06:29:17;;;;;;;;;;;20.10;66.20;;;;;;5032403;28;19909;-55
2023/08/11 06:31:42;;;;;;;;;;;20.10;66.20;;;;;;5033644;28;19979;-53
2023/08/11 06:34:08;;;;;;;;;;;20.10;66.30;;;;;;5037825;28;19913;-53
2023/08/11 06:36:34;;;;;;;;;;;20.10;66.30;;;;;;5033120;28;19917;-53
2023/08/11 06:38:59;;;;;;;;;;;20.00;66.40;;;;;;5047716;28;19956;-53
2023/08/11 06:41:24;;;;;;;;;;;20.00;66.40;;;;;;5042123;28;19921;-53
2023/08/11 06:43:50;;;;;;;;;;;20.00;66.40;;;;;;5034500;28;19952;-53
2023/08/11 06:46:15;;;;;;;;;;;20.10;66.60;;;;;;5035195;28;19909;-54
2023/08/11 06:48:41;;;;;;;;;;;20.00;66.40;;;;;;5036444;28;19921;-54
2023/08/11 06:51:07;;;;;;;;;;;20.10;66.40;;;;;;5032401;28;19913;-53
2023/08/11 06:53:32;;;;;;;;;;;20.10;66.50;;;;;;5034762;28;20316;-54
2023/08/11 06:55:58;;;;;;;;;;;20.10;66.40;;;;;;5036587;28;20442;-54
2023/08/11 06:58:23;;;;;;;;;;;20.10;66.50;;;;;;5034127;28;19916;-53
2023/08/11 07:00:49;;;;;;;;;;;20.10;66.50;;;;;;5034045;28;19928;-54
2023/08/11 07:03:14;;;;;;;;;;;20.10;66.50;;;;;;5033892;28;19963;-53
2023/08/11 07:05:40;;;;;;;;;;;20.10;66.60;;;;;;5031507;28;19920;-53
2023/08/11 07:08:05;;;;;;;;;;;20.10;66.60;;;;;;5032446;28;19917;-53
2023/08/11 07:10:31;;;;;;;;;;;20.10;66.60;;;;;;5033686;28;19909;-54
2023/08/11 07:12:57;;;;;;;;;;;20.10;66.60;;;;;;5032973;28;19964;-53
2023/08/11 07:15:22;;;;;;;;;;;20.10;66.60;;;;;;5033529;28;19913;-54
2023/08/11 07:17:47;;;;;;;;;;;20.10;66.60;;;;;;5034927;28;19910;-53
2023/08/11 07:20:13;;;;;;;;;;;20.10;66.60;;;;;;5031740;28;19963;-53
2023/08/11 07:22:38;;;;;;;;;;;20.10;66.60;;;;;;5034618;28;19924;-54
2023/08/11 07:25:04;;;;;;;;;;;20.10;66.60;;;;;;5032600;28;20024;-53
2023/08/11 07:27:29;;;;;;;;;;;20.10;66.70;;;;;;5034924;28;20347;-53
2023/08/11 07:29:55;;;;;;;;;;;20.10;66.70;;;;;;5033837;28;19971;-53
2023/08/11 07:32:20;;;;;;;;;;;20.10;66.90;;;;;;5033493;28;19985;-54
2023/08/11 07:34:45;;;;;;;;;;;20.10;66.80;;;;;;5018127;28;19909;-53
2023/08/11 07:37:11;;;;;;;;;;;20.10;66.80;;;;;;5034544;28;19964;-53
2023/08/11 07:39:36;;;;;;;;;;;20.10;66.90;;;;;;5037384;28;19943;-53
2023/08/11 07:42:05;;;;;;;;;;;20.10;66.90;;;;;;5031671;28;19921;-53
2023/08/11 07:44:30;;;;;;;;;;;20.10;67.00;;;;;;5047236;28;19917;-53
2023/08/11 07:46:56;;;;;;;;;;;20.10;67.00;;;;;;5034592;28;19920;-53
2023/08/11 07:49:22;;;;;;;;;;;20.10;67.10;;;;;;5031078;28;19921;-54
2023/08/11 07:51:48;;;;;;;;;;;20.10;67.10;;;;;;5045186;28;19909;-53
2023/08/11 07:54:13;;;;;;;;;;;20.10;67.00;;;;;;5029891;28;20262;-53
2023/08/11 07:56:39;;;;;;;;;;;20.20;67.10;;;;;;5037626;28;20389;-53
2023/08/11 07:59:04;;;;;;;;;;;20.10;66.90;;;;;;5033253;28;19913;-53
2023/08/11 08:01:30;;;;;;;;;;;20.20;67.10;;;;;;5034228;28;19913;-53
2023/08/11 08:03:55;;;;;;;;;;;20.20;67.00;;;;;;5035330;28;19920;-53
2023/08/11 08:06:21;;;;;;;;;;;20.20;67.10;;;;;;5030984;28;19921;-54
2023/08/11 08:08:46;;;;;;;;;;;20.20;67.00;;;;;;5029017;28;19917;-53
2023/08/11 08:11:12;;;;;;;;;;;20.20;67.00;;;;;;5000714;28;20420;-54
2023/08/11 08:13:37;;;;;;;;;;;20.20;66.90;;;;;;5025763;28;19912;-53
2023/08/11 08:16:03;;;;;;;;;;;20.20;67.10;;;;;;5037168;28;19917;-55
2023/08/11 08:18:28;;;;;;;;;;;20.20;66.80;;;;;;5030621;28;19917;-53
2023/08/11 08:20:53;;;;;;;;;;;20.20;66.80;;;;;;5032271;28;19917;-53
2023/08/11 08:23:19;;;;;;;;;;;20.20;66.80;;;;;;5034197;28;19970;-53
2023/08/11 08:25:44;;;;;;;;;;;20.30;66.80;;;;;;5033175;28;19962;-53
2023/08/11 08:28:11;;;;;;;;;;;20.30;66.80;;;;;;5032635;28;20296;-54
2023/08/11 08:30:36;;;;;;;;;;;20.20;66.70;;;;;;5030371;28;19912;-54
2023/08/11 08:33:02;;;;;;;;;;;20.20;66.80;;;;;;5032923;28;20465;-53
2023/08/11 08:35:27;;;;;;;;;;;20.30;66.80;;;;;;5015545;28;19913;-53
2023/08/11 08:37:53;;;;;;;;;;;20.30;66.90;;;;;;5029936;28;20309;-53
2023/08/11 08:40:18;;;;;;;;;;;20.30;67.00;;;;;;5032409;28;19921;-53
2023/08/11 08:42:44;;;;;;;;;;;20.30;67.10;;;;;;5028617;28;19917;-53
2023/08/11 08:45:09;;;;;;;;;;;20.30;67.10;;;;;;5030990;28;20020;-54
2023/08/11 08:47:35;;;;;;;;;;;20.30;67.10;;;;;;5010465;28;19928;-53
2023/08/11 08:50:01;;;;;;;;;;;20.30;67.40;;;;;;5031343;28;19952;-52
2023/08/11 08:52:27;;;;;;;;;;;20.30;67.50;;;;;;5029409;28;20397;-52
2023/08/11 08:54:52;;;;;;;;;;;20.30;67.70;;;;;;5031777;28;19945;-53
2023/08/11 08:57:20;;;;;;;;;;;20.30;67.70;;;;;;5038442;28;20008;-53
2023/08/11 08:59:46;;;;;;;;;;;20.30;67.80;;;;;;5014867;28;20392;-53
2023/08/11 09:02:11;;;;;;;;;;;20.30;67.90;;;;;;5033160;28;19917;-54
2023/08/11 09:04:37;;;;;;;;;;;20.30;68.20;;;;;;5031848;28;19944;-52
2023/08/11 09:07:02;;;;;;;;;;;20.30;68.20;;;;;;5030690;28;20439;-52
2023/08/11 09:09:28;;;;;;;;;;;20.30;68.30;;;;;;5032342;28;19914;-52
2023/08/11 09:11:53;;;;;;;;;;;20.30;68.20;;;;;;5033201;28;20457;-52
2023/08/11 09:14:19;;;;;;;;;;;20.30;68.30;;;;;;5030781;28;19972;-52
2023/08/11 09:16:45;;;;;;;;;;;20.40;68.30;;;;;;5032247;28;19967;-52
2023/08/11 09:19:11;;;;;;;;;;;20.30;68.20;;;;;;5032753;28;19945;-52
2023/08/11 09:21:36;;;;;;;;;;;20.30;68.40;;;;;;5032654;28;19913;-53
2023/08/11 09:24:02;;;;;;;;;;;20.40;68.40;;;;;;5031602;28;19917;-52
2023/08/11 09:26:28;;;;;;;;;;;20.40;68.40;;;;;;5032618;28;20269;-55
2023/08/11 09:28:53;;;;;;;;;;;20.30;68.40;;;;;;5010963;28;19972;-53
2023/08/11 09:31:22;;;;;;;;;;;20.40;68.60;;;;;;5026941;28;19920;-53
2023/08/11 09:33:48;;;;;;;;;;;20.40;68.70;;;;;;5030001;28;19999;-53
2023/08/11 09:36:13;;;;;;;;;;;20.40;68.70;;;;;;5030581;28;19999;-53
2023/08/11 09:38:40;;;;;;;;;;;20.40;68.70;;;;;;5029839;28;19920;-53
2023/08/11 09:41:08;;;;;;;;;;;20.40;68.70;;;;;;5032362;28;20361;-53
2023/08/11 09:43:34;;;;;;;;;;;20.40;68.70;;;;;;5028735;28;20099;-53
2023/08/11 09:46:00;;;;;;;;;;;20.40;68.70;;;;;;5014832;28;20492;-53
2023/08/11 09:48:26;;;;;;;;;;;20.40;68.60;;;;;;5030684;28;19928;-53
2023/08/11 09:50:52;;;;;;;;;;;20.40;68.70;;;;;;5031648;28;19999;-53
2023/08/11 09:53:18;;;;;;;;;;;20.40;68.80;;;;;;5031656;28;19913;-53
2023/08/11 09:55:43;;;;;;;;;;;20.40;68.80;;;;;;5028988;28;19917;-53
2023/08/11 09:58:09;;;;;;;;;;;20.40;68.80;;;;;;5027838;28;19999;-52
2023/08/11 10:00:34;;;;;;;;;;;20.50;68.90;;;;;;5002716;28;19922;-53
2023/08/11 10:03:05;;;;;;;;;;;20.50;68.90;;;;;;5031305;28;19917;-53
2023/08/11 10:05:31;;;;;;;;;;;20.50;69.00;;;;;;5033709;28;19914;-53
2023/08/11 10:07:56;;;;;;;;;;;20.50;69.00;;;;;;5011399;28;19913;-53
2023/08/11 10:10:22;;;;;;;;;;;20.50;69.10;;;;;;4994488;28;19909;-53
2023/08/11 10:12:49;;;;;;;;;;;20.50;69.20;;;;;;5020734;28;19939;-53
2023/08/11 10:15:16;;;;;;;;;;;20.50;69.20;;;;;;5030049;28;19909;-54
2023/08/11 10:17:41;;;;;;;;;;;20.50;69.20;;;;;;5024684;28;19913;-53
2023/08/11 10:20:07;;;;;;;;;;;20.50;69.20;;;;;;5028647;28;19919;-54
2023/08/11 10:22:32;;;;;;;;;;;20.50;69.30;;;;;;5013698;28;19944;-54
2023/08/11 10:24:59;;;;;;;;;;;20.50;69.30;;;;;;5031628;28;19913;-54
2023/08/11 10:27:24;;;;;;;;;;;20.60;69.50;;;;;;5021531;28;19913;-54
2023/08/11 10:29:50;;;;;;;;;;;20.60;69.50;;;;;;5026292;28;20352;-53
2023/08/11 10:32:16;;;;;;;;;;;20.60;69.50;;;;;;5014179;28;20291;-53
2023/08/11 10:34:41;;;;;;;;;;;20.60;69.50;;;;;;5030923;28;20353;-54
2023/08/11 10:37:07;;;;;;;;;;;20.60;69.50;;;;;;5031647;28;19913;-55
2023/08/11 10:39:33;;;;;;;;;;;20.60;69.60;;;;;;5030517;28;20299;-53
2023/08/11 10:41:58;;;;;;;;;;;20.70;69.70;;;;;;5027361;28;19921;-54
2023/08/11 10:44:27;;;;;;;;;;;20.70;69.70;;;;;;5030198;28;19971;-54
2023/08/11 10:46:52;;;;;;;;;;;20.70;69.70;;;;;;5031400;28;20014;-54
2023/08/11 10:49:20;;;;;;;;;;;20.70;69.70;;;;;;5031480;28;20389;-54
2023/08/11 10:51:46;;;;;;;;;;;20.70;69.70;;;;;;5030921;28;19967;-54
2023/08/11 10:54:11;;;;;;;;;;;20.70;69.70;;;;;;5031613;28;20034;-54
2023/08/11 10:56:41;;;;;;;;;;;20.70;69.90;;;;;;5010873;28;19920;-54
2023/08/11 10:59:16;;;;;;;;;;;20.70;70.00;;;;;;5011117;28;19920;-54
2023/08/11 11:01:43;;;;;;;;;;;20.70;70.10;;;;;;5022222;28;19917;-54
2023/08/11 11:04:09;;;;;;;;;;;20.70;70.10;;;;;;5025207;28;19913;-54
2023/08/11 11:06:34;;;;;;;;;;;20.70;70.20;;;;;;5023495;28;20514;-54
2023/08/11 11:09:00;;;;;;;;;;;20.70;70.30;;;;;;5031078;28;19940;-54
2023/08/11 11:11:25;;;;;;;;;;;20.70;70.30;;;;;;5030032;28;20365;-54
2023/08/11 11:13:51;;;;;;;;;;;20.80;70.40;;;;;;5032689;28;20403;-54
2023/08/11 11:16:17;;;;;;;;;;;20.80;70.60;;;;;;5035180;28;19961;-54
2023/08/11 11:18:42;;;;;;;;;;;20.70;70.50;;;;;;5033854;28;19923;-54
2023/08/11 11:21:11;;;;;;;;;;;20.80;70.80;;;;;;5032898;28;19926;-55
2023/08/11 11:23:36;;;;;;;;;;;20.80;70.80;;;;;;5028165;28;20468;-54
2023/08/11 11:26:02;;;;;;;;;;;20.80;70.80;;;;;;5036838;28;20118;-54
2023/08/11 11:28:27;;;;;;;;;;;20.80;70.90;;;;;;5030515;28;19919;-55
2023/08/11 11:30:53;;;;;;;;;;;20.80;70.80;;;;;;5029023;28;20020;-55
2023/08/11 11:33:19;;;;;;;;;;;20.90;71.10;;;;;;5031822;28;20373;-55
2023/08/11 11:35:44;;;;;;;;;;;20.90;70.90;;;;;;5033082;28;19917;-54
2023/08/11 11:38:10;;;;;;;;;;;20.90;71.00;;;;;;5032831;28;19923;-54
2023/08/11 11:40:35;;;;;;;;;;;20.90;71.10;;;;;;5038222;28;19966;-54
2023/08/11 11:43:01;;;;;;;;;;;20.90;71.10;;;;;;5043611;28;19991;-54
2023/08/11 11:45:26;;;;;;;;;;;20.90;71.10;;;;;;5043142;28;19912;-54
2023/08/11 11:47:53;;;;;;;;;;;21.00;71.10;;;;;;5024682;28;19921;-55
2023/08/11 11:50:18;;;;;;;;;;;21.00;71.10;;;;;;5032500;28;19925;-55
2023/08/11 11:52:47;;;;;;;;;;;21.00;71.20;;;;;;5031389;28;20361;-54
2023/08/11 11:55:12;;;;;;;;;;;21.00;71.10;;;;;;5030752;28;19920;-54
2023/08/11 11:57:38;;;;;;;;;;;21.10;71.20;;;;;;5035281;28;19916;-54
2023/08/11 12:00:15;;;;;;;;;;;21.10;71.10;;;;;;5013325;28;19913;-54
2023/08/11 12:02:41;;;;;;;;;;;21.10;71.30;;;;;;5040741;28;19968;-54
2023/08/11 12:05:08;;;;;;;;;;;21.10;71.10;;;;;;5029433;28;19953;-54
2023/08/11 12:07:34;;;;;;;;;;;21.10;71.10;;;;;;5031598;28;19925;-55
2023/08/11 12:10:00;;;;;;;;;;;21.10;71.90;;;;;;5029101;28;19921;-54
2023/08/11 12:12:28;;;;;;;;;;;21.10;71.10;;;;;;5024817;28;22527;-54
2023/08/11 12:15:04;;;;;;;;;;;21.20;71.10;;;;;;5022818;28;19913;-53
2023/08/11 12:17:30;;;;;;;;;;;21.20;71.20;;;;;;5032650;28;19913;-53
2023/08/11 12:19:55;;;;;;;;;;;21.20;71.10;;;;;;5032926;28;19963;-53
2023/08/11 12:22:21;;;;;;;;;;;21.20;71.10;;;;;;5035316;28;19972;-53
2023/08/11 12:24:46;;;;;;;;;;;21.20;71.10;;;;;;5037059;28;19913;-53
2023/08/11 12:27:12;;;;;;;;;;;21.20;71.20;;;;;;5032293;28;19917;-54
2023/08/11 12:29:37;;;;;;;;;;;21.20;71.20;;;;;;5026581;28;19914;-54
2023/08/11 12:32:03;;;;;;;;;;;21.30;71.30;;;;;;5013787;28;19957;-52
2023/08/11 12:34:28;;;;;;;;;;;21.40;71.30;;;;;;5029802;28;19920;-52
2023/08/11 12:36:54;;;;;;;;;;;21.40;71.00;;;;;;5018557;28;20771;-52
2023/08/11 12:39:19;;;;;;;;;;;21.50;70.80;;;;;;5030043;28;20468;-52
2023/08/11 12:41:45;;;;;;;;;;;21.50;70.70;;;;;;5032940;28;20015;-54
2023/08/11 12:44:10;;;;;;;;;;;21.50;70.70;;;;;;5033006;28;19909;-53
2023/08/11 12:46:36;;;;;;;;;;;21.50;70.70;;;;;;5032938;28;19913;-54
2023/08/11 12:49:02;;;;;;;;;;;21.60;70.70;;;;;;5029211;28;19952;-54
2023/08/11 12:51:27;;;;;;;;;;;21.60;70.70;;;;;;5030839;28;20589;-54
2023/08/11 12:53:53;;;;;;;;;;;21.60;70.60;;;;;;5030910;28;19940;-54
2023/08/11 12:56:18;;;;;;;;;;;21.70;70.60;;;;;;5032620;28;19958;-54
2023/08/11 12:58:43;;;;;;;;;;;21.70;70.40;;;;;;5028707;28;20006;-54
2023/08/11 13:01:09;;;;;;;;;;;21.80;70.50;;;;;;5028830;28;19921;-54
2023/08/11 13:03:34;;;;;;;;;;;21.80;70.40;;;;;;5028881;28;19917;-54
2023/08/11 13:06:00;;;;;;;;;;;21.80;70.40;;;;;;5030670;28;20336;-54
2023/08/11 13:08:25;;;;;;;;;;;21.90;70.50;;;;;;5028140;28;19925;-54
2023/08/11 13:10:51;;;;;;;;;;;21.90;70.40;;;;;;5031969;28;19909;-54
2023/08/11 13:13:16;;;;;;;;;;;21.90;70.40;;;;;;5032581;28;19985;-55
2023/08/11 13:15:42;;;;;;;;;;;21.90;70.50;;;;;;5031261;28;19917;-54
2023/08/11 13:18:08;;;;;;;;;;;21.90;70.50;;;;;;5031264;28;20012;-55
2023/08/11 13:20:33;;;;;;;;;;;21.90;70.50;;;;;;5029746;28;19992;-55
2023/08/11 13:22:58;;;;;;;;;;;21.90;70.40;;;;;;5032946;28;19909;-54
2023/08/11 13:25:24;;;;;;;;;;;22.00;70.40;;;;;;5032305;28;19913;-54
2023/08/11 13:27:49;;;;;;;;;;;22.00;70.40;;;;;;5032831;28;19917;-54
2023/08/11 13:30:15;;;;;;;;;;;22.10;70.40;;;;;;5031102;28;19916;-55
2023/08/11 13:32:41;;;;;;;;;;;22.10;70.40;;;;;;5031935;28;19917;-54
2023/08/11 13:35:06;;;;;;;;;;;22.10;70.40;;;;;;5029708;28;19920;-54
2023/08/11 13:37:32;;;;;;;;;;;22.10;70.40;;;;;;5032572;28;19916;-54
2023/08/11 13:39:57;;;;;;;;;;;22.20;70.50;;;;;;5032281;28;20480;-54
2023/08/11 13:42:23;;;;;;;;;;;22.10;70.30;;;;;;5031112;28;19956;-54
2023/08/11 13:44:49;;;;;;;;;;;22.20;70.40;;;;;;5031551;28;19913;-54
2023/08/11 13:47:16;;;;;;;;;;;22.20;70.40;;;;;;5031086;28;19995;-54
2023/08/11 13:49:42;;;;;;;;;;;22.20;70.50;;;;;;5028020;28;19924;-54
2023/08/11 13:52:07;;;;;;;;;;;22.20;70.50;;;;;;5030752;28;20362;-54
2023/08/11 13:54:33;;;;;;;;;;;22.20;70.40;;;;;;5026878;28;21234;-55
2023/08/11 13:56:58;;;;;;;;;;;22.30;70.70;;;;;;5031911;28;19909;-54
2023/08/11 13:59:24;;;;;;;;;;;22.30;70.50;;;;;;5031451;28;20426;-54
2023/08/11 14:01:49;;;;;;;;;;;22.30;70.50;;;;;;5031110;28;20344;-54
2023/08/11 14:04:14;;;;;;;;;;;22.30;70.60;;;;;;5029327;28;19948;-54
2023/08/11 14:06:40;;;;;;;;;;;22.30;70.50;;;;;;5007532;28;19920;-55
2023/08/11 14:09:05;;;;;;;;;;;22.30;70.50;;;;;;5026565;28;19944;-54